sensor_id;sensor_type;location;lat;lon;timestamp;pressure;altitude;pressure_sealevel;temperature;humidity
54122;BME280;40029;58.708;50.190;2023-01-28T06:27:39;100577.94;;;-3.13;47.75
54122;BME280;40029;58.708;50.190;2023-01-28T06:30:10;100566.63;;;-3.22;47.88
54122;BME280;40029;58.708;50.190;2023-01-28T06:32:42;100558.59;;;-3.35;48.31
54122;BME280;40029;58.708;50.190;2023-01-28T06:35:14;100575.75;;;-3.00;47.81
54122;BME280;40029;58.708;50.190;2023-01-28T06:37:45;100559.88;;;-2.92;47.79
54122;BME280;40029;58.708;50.190;2023-01-28T06:40:19;100573.22;;;-2.70;47.52
54122;BME280;40029;58.708;50.190;2023-01-28T06:42:52;100579.28;;;-2.67;47.77
54122;BME280;40029;58.708;50.190;2023-01-28T06:45:23;100579.56;;;-2.56;47.27
54122;BME280;40029;58.708;50.190;2023-01-28T06:47:54;100555.75;;;-2.57;46.94
54122;BME280;40029;58.708;50.190;2023-01-28T06:50:25;100526.47;;;-2.71;46.87
54122;BME280;40029;58.708;50.190;2023-01-28T06:52:56;100581.97;;;-2.62;47.16
54122;BME280;40029;58.708;50.190;2023-01-28T06:55:27;100503.72;;;-2.93;46.99
54122;BME280;40029;58.708;50.190;2023-01-28T06:57:58;100579.88;;;-2.45;47.15
54122;BME280;40029;58.708;50.190;2023-01-28T07:00:29;100568.00;;;-2.45;47.43
54122;BME280;40029;58.708;50.190;2023-01-28T07:03:00;100585.56;;;-2.24;46.67
54122;BME280;40029;58.708;50.190;2023-01-28T07:05:31;100595.41;;;-2.38;47.18
54122;BME280;40029;58.708;50.190;2023-01-28T07:08:02;100592.78;;;-2.39;46.75
54122;BME280;40029;58.708;50.190;2023-01-28T07:10:34;100604.78;;;-2.37;46.91
54122;BME280;40029;58.708;50.190;2023-01-28T07:13:05;100611.03;;;-2.26;46.39
54122;BME280;40029;58.708;50.190;2023-01-28T07:15:36;100569.56;;;-2.50;46.78
54122;BME280;40029;58.708;50.190;2023-01-28T07:18:07;100599.22;;;-2.22;46.38
54122;BME280;40029;58.708;50.190;2023-01-28T07:20:38;100604.38;;;-2.20;46.60
54122;BME280;40029;58.708;50.190;2023-01-28T07:23:09;100533.75;;;-2.83;45.78
54122;BME280;40029;58.708;50.190;2023-01-28T07:25:40;100615.97;;;-2.32;46.51
54122;BME280;40029;58.708;50.190;2023-01-28T07:28:11;100579.88;;;-2.45;46.22
54122;BME280;40029;58.708;50.190;2023-01-28T07:30:42;100575.03;;;-2.36;45.51
54122;BME280;40029;58.708;50.190;2023-01-28T07:33:13;100611.13;;;-2.22;45.86
54122;BME280;40029;58.708;50.190;2023-01-28T07:35:45;100627.31;;;-2.22;46.23
54122;BME280;40029;58.708;50.190;2023-01-28T07:38:17;100576.66;;;-2.38;45.91
54122;BME280;40029;58.708;50.190;2023-01-28T07:40:48;100623.19;;;-2.17;46.07
54122;BME280;40029;58.708;50.190;2023-01-28T07:43:19;100588.66;;;-2.36;45.38
54122;BME280;40029;58.708;50.190;2023-01-28T07:45:53;100628.56;;;-2.08;45.55
54122;BME280;40029;58.708;50.190;2023-01-28T07:48:24;100625.00;;;-2.13;45.75
54122;BME280;40029;58.708;50.190;2023-01-28T07:50:58;100583.06;;;-2.21;45.61
54122;BME280;40029;58.708;50.190;2023-01-28T07:53:29;100579.47;;;-2.29;45.18
54122;BME280;40029;58.708;50.190;2023-01-28T07:56:01;100597.72;;;-2.15;45.67
54122;BME280;40029;58.708;50.190;2023-01-28T07:58:33;100607.31;;;-2.07;45.82
54122;BME280;40029;58.708;50.190;2023-01-28T08:01:04;100597.47;;;-2.24;45.71
54122;BME280;40029;58.708;50.190;2023-01-28T08:03:35;100609.72;;;-2.11;45.61
54122;BME280;40029;58.708;50.190;2023-01-28T08:06:06;100636.91;;;-2.13;44.85
54122;BME280;40029;58.708;50.190;2023-01-28T08:08:37;100643.41;;;-2.24;44.52
54122;BME280;40029;58.708;50.190;2023-01-28T08:11:08;100644.03;;;-2.33;44.53
54122;BME280;40029;58.708;50.190;2023-01-28T08:13:40;100660.00;;;-2.39;43.81
54122;BME280;40029;58.708;50.190;2023-01-28T08:16:11;100620.22;;;-2.62;43.20
54122;BME280;40029;58.708;50.190;2023-01-28T08:18:42;100656.22;;;-2.23;43.46
54122;BME280;40029;58.708;50.190;2023-01-28T08:21:13;100664.50;;;-2.30;42.53
54122;BME280;40029;58.708;50.190;2023-01-28T08:23:44;100660.38;;;-2.27;42.13
54122;BME280;40029;58.708;50.190;2023-01-28T08:26:15;100654.25;;;-2.33;42.75
54122;BME280;40029;58.708;50.190;2023-01-28T08:28:46;100657.41;;;-2.42;42.70
54122;BME280;40029;58.708;50.190;2023-01-28T08:31:17;100660.00;;;-2.39;42.29
54122;BME280;40029;58.708;50.190;2023-01-28T08:33:48;100666.31;;;-2.26;41.97
54122;BME280;40029;58.708;50.190;2023-01-28T08:36:19;100653.44;;;-2.31;42.50
54122;BME280;40029;58.708;50.190;2023-01-28T08:38:52;100671.44;;;-2.26;42.04
54122;BME280;40029;58.708;50.190;2023-01-28T08:41:24;100667.84;;;-2.33;41.99
54122;BME280;40029;58.708;50.190;2023-01-28T08:43:55;100658.19;;;-2.43;42.69
54122;BME280;40029;58.708;50.190;2023-01-28T08:46:26;100667.19;;;-2.56;42.46
54122;BME280;40029;58.708;50.190;2023-01-28T08:48:57;100663.47;;;-2.67;42.80
54122;BME280;40029;58.708;50.190;2023-01-28T08:51:28;100661.78;;;-2.93;42.44
54122;BME280;40029;58.708;50.190;2023-01-28T08:53:59;100640.91;;;-2.82;42.43
54122;BME280;40029;58.708;50.190;2023-01-28T08:56:32;100653.88;;;-2.74;42.08
54122;BME280;40029;58.708;50.190;2023-01-28T08:59:03;100649.88;;;-2.94;42.65
54122;BME280;40029;58.708;50.190;2023-01-28T09:01:34;100645.03;;;-2.85;42.83
54122;BME280;40029;58.708;50.190;2023-01-28T09:04:05;100643.66;;;-2.75;42.61
54122;BME280;40029;58.708;50.190;2023-01-28T09:06:36;100640.06;;;-2.52;42.41
54122;BME280;40029;58.708;50.190;2023-01-28T09:09:07;100578.34;;;-2.70;42.22
54122;BME280;40029;58.708;50.190;2023-01-28T09:11:38;100626.44;;;-2.22;41.61
54122;BME280;40029;58.708;50.190;2023-01-28T09:14:09;100629.09;;;-2.19;41.91
54122;BME280;40029;58.708;50.190;2023-01-28T09:16:40;100590.09;;;-2.75;41.95
54122;BME280;40029;58.708;50.190;2023-01-28T09:19:11;100616.84;;;-2.61;42.33
54122;BME280;40029;58.708;50.190;2023-01-28T09:21:42;100618.06;;;-2.48;41.76
54122;BME280;40029;58.708;50.190;2023-01-28T09:24:13;100614.88;;;-2.41;42.52
54122;BME280;40029;58.708;50.190;2023-01-28T09:26:44;100606.47;;;-2.37;42.20
54122;BME280;40029;58.708;50.190;2023-01-28T09:29:15;100607.41;;;-2.34;41.31
54122;BME280;40029;58.708;50.190;2023-01-28T09:31:46;100610.53;;;-2.74;42.59
54122;BME280;40029;58.708;50.190;2023-01-28T09:34:17;100599.88;;;-2.59;42.57
54122;BME280;40029;58.708;50.190;2023-01-28T09:36:48;100599.22;;;-2.54;42.27
54122;BME280;40029;58.708;50.190;2023-01-28T09:39:19;100596.66;;;-2.84;43.32
54122;BME280;40029;58.708;50.190;2023-01-28T09:44:51;100595.44;;;-2.66;42.61
54122;BME280;40029;58.708;50.190;2023-01-28T09:47:50;100583.78;;;-2.58;42.96
54122;BME280;40029;58.708;50.190;2023-01-28T09:50:32;100589.69;;;-2.59;42.96
54122;BME280;40029;58.708;50.190;2023-01-28T09:53:09;100598.00;;;-2.66;43.20
54122;BME280;40029;58.708;50.190;2023-01-28T09:55:45;100593.06;;;-2.60;42.61
54122;BME280;40029;58.708;50.190;2023-01-28T09:58:17;100574.66;;;-2.50;42.55
54122;BME280;40029;58.708;50.190;2023-01-28T10:18:41;100574.31;;;-2.62;42.14
54122;BME280;40029;58.708;50.190;2023-01-28T10:26:32;100593.00;;;-2.63;42.34
54122;BME280;40029;58.708;50.190;2023-01-28T10:29:28;100594.69;;;-2.92;43.38
54122;BME280;40029;58.708;50.190;2023-01-28T10:32:17;100597.44;;;-2.85;43.76
54122;BME280;40029;58.708;50.190;2023-01-28T10:34:51;100592.50;;;-2.80;44.03
54122;BME280;40029;58.708;50.190;2023-01-28T10:37:23;100595.34;;;-2.69;43.73
54122;BME280;40029;58.708;50.190;2023-01-28T10:39:56;100595.38;;;-2.98;44.55
54122;BME280;40029;58.708;50.190;2023-01-28T10:42:36;100590.69;;;-2.84;44.44
54122;BME280;40029;58.708;50.190;2023-01-28T10:50:24;100574.97;;;-2.98;44.07
54122;BME280;40029;58.708;50.190;2023-01-28T10:53:03;100606.97;;;-3.08;44.04
54122;BME280;40029;58.708;50.190;2023-01-28T10:58:23;100600.03;;;-3.13;44.53
54122;BME280;40029;58.708;50.190;2023-01-28T11:01:05;100599.53;;;-3.29;44.94
54122;BME280;40029;58.708;50.190;2023-01-28T11:03:37;100598.94;;;-3.20;44.88
54122;BME280;40029;58.708;50.190;2023-01-28T11:06:23;100561.66;;;-3.45;45.11
54122;BME280;40029;58.708;50.190;2023-01-28T11:08:55;100607.44;;;-3.21;44.91
54122;BME280;40029;58.708;50.190;2023-01-28T11:11:27;100604.13;;;-3.18;44.21
54122;BME280;40029;58.708;50.190;2023-01-28T11:13:59;100601.47;;;-3.21;43.96
54122;BME280;40029;58.708;50.190;2023-01-28T11:16:30;100589.44;;;-3.25;44.24
54122;BME280;40029;58.708;50.190;2023-01-28T11:19:05;100582.19;;;-3.40;44.39
54122;BME280;40029;58.708;50.190;2023-01-28T11:21:36;100585.09;;;-3.28;43.58
54122;BME280;40029;58.708;50.190;2023-01-28T11:24:17;100587.72;;;-3.27;44.13
54122;BME280;40029;58.708;50.190;2023-01-28T11:26:53;100598.50;;;-3.35;43.97
54122;BME280;40029;58.708;50.190;2023-01-28T11:29:32;100605.03;;;-3.43;44.35
54122;BME280;40029;58.708;50.190;2023-01-28T11:32:04;100602.22;;;-3.51;44.44
54122;BME280;40029;58.708;50.190;2023-01-28T11:34:51;100621.69;;;-3.79;44.86
54122;BME280;40029;58.708;50.190;2023-01-28T11:37:24;100614.41;;;-3.93;45.55
54122;BME280;40029;58.708;50.190;2023-01-28T11:40:16;100626.38;;;-3.91;45.58
54122;BME280;40029;58.708;50.190;2023-01-28T11:42:50;100621.66;;;-3.80;45.18
54122;BME280;40029;58.708;50.190;2023-01-28T11:48:42;100636.97;;;-3.79;45.17
54122;BME280;40029;58.708;50.190;2023-01-28T11:51:41;100632.03;;;-3.74;44.88
54122;BME280;40029;58.708;50.190;2023-01-28T11:54:23;100616.28;;;-3.88;45.04
54122;BME280;40029;58.708;50.190;2023-01-28T11:57:04;100624.19;;;-3.80;45.51
54122;BME280;40029;58.708;50.190;2023-01-28T12:02:39;100618.13;;;-3.84;45.66
54122;BME280;40029;58.708;50.190;2023-01-28T12:13:33;100618.44;;;-3.74;45.69
54122;BME280;40029;58.708;50.190;2023-01-28T12:22:19;100621.59;;;-3.56;45.31
54122;BME280;40029;58.708;50.190;2023-01-28T12:25:05;100626.13;;;-3.73;45.44
54122;BME280;40029;58.708;50.190;2023-01-28T12:28:14;100619.38;;;-3.72;45.79
54122;BME280;40029;58.708;50.190;2023-01-28T12:33:54;100606.75;;;-3.69;45.92
54122;BME280;40029;58.708;50.190;2023-01-28T12:36:51;100607.81;;;-3.61;45.63
54122;BME280;40029;58.708;50.190;2023-01-28T12:39:38;100602.59;;;-3.66;45.83
54122;BME280;40029;58.708;50.190;2023-01-28T12:42:35;100595.88;;;-3.64;45.57
54122;BME280;40029;58.708;50.190;2023-01-28T12:48:10;100606.31;;;-3.56;45.53
54122;BME280;40029;58.708;50.190;2023-01-28T12:50:51;100606.19;;;-3.61;45.91
54122;BME280;40029;58.708;50.190;2023-01-28T12:56:44;100603.13;;;-3.76;45.90
54122;BME280;40029;58.708;50.190;2023-01-28T12:59:48;100603.25;;;-3.71;45.59
54122;BME280;40029;58.708;50.190;2023-01-28T13:05:26;100597.56;;;-3.64;45.75
54122;BME280;40029;58.708;50.190;2023-01-28T13:08:14;100609.09;;;-3.74;45.97
54122;BME280;40029;58.708;50.190;2023-01-28T13:10:47;100605.06;;;-3.69;45.46
54122;BME280;40029;58.708;50.190;2023-01-28T13:13:37;100608.47;;;-3.68;45.80
54122;BME280;40029;58.708;50.190;2023-01-28T13:16:10;100614.59;;;-3.62;45.80
54122;BME280;40029;58.708;50.190;2023-01-28T13:18:43;100619.63;;;-3.65;45.56
54122;BME280;40029;58.708;50.190;2023-01-28T13:26:50;100610.91;;;-3.97;46.47
54122;BME280;40029;58.708;50.190;2023-01-28T13:32:01;100620.78;;;-4.06;46.61
54122;BME280;40029;58.708;50.190;2023-01-28T13:34:36;100623.59;;;-3.98;46.48
54122;BME280;40029;58.708;50.190;2023-01-28T13:37:29;100622.59;;;-4.02;46.51
54122;BME280;40029;58.708;50.190;2023-01-28T13:40:25;100631.84;;;-4.04;46.71
54122;BME280;40029;58.708;50.190;2023-01-28T13:43:01;100630.28;;;-4.00;46.69
54122;BME280;40029;58.708;50.190;2023-01-28T13:45:33;100628.38;;;-4.08;46.52
54122;BME280;40029;58.708;50.190;2023-01-28T13:48:29;100634.31;;;-4.07;46.78
54122;BME280;40029;58.708;50.190;2023-01-28T13:51:01;100633.53;;;-4.05;46.86
54122;BME280;40029;58.708;50.190;2023-01-28T13:53:43;100628.19;;;-4.12;46.99
54122;BME280;40029;58.708;50.190;2023-01-28T13:56:25;100626.56;;;-4.10;47.20
54122;BME280;40029;58.708;50.190;2023-01-28T13:59:29;100629.44;;;-4.01;46.85
54122;BME280;40029;58.708;50.190;2023-01-28T14:05:20;100617.63;;;-3.99;46.86
54122;BME280;40029;58.708;50.190;2023-01-28T14:08:21;100616.97;;;-3.93;46.85
54122;BME280;40029;58.708;50.190;2023-01-28T14:14:08;100621.22;;;-3.92;47.26
54122;BME280;40029;58.708;50.190;2023-01-28T14:16:56;100623.09;;;-3.87;47.26
54122;BME280;40029;58.708;50.190;2023-01-28T14:19:32;100624.16;;;-3.82;47.30
54122;BME280;40029;58.708;50.190;2023-01-28T14:22:08;100622.72;;;-3.73;46.94
54122;BME280;40029;58.708;50.190;2023-01-28T14:24:39;100628.06;;;-3.66;47.02
54122;BME280;40029;58.708;50.190;2023-01-28T14:27:17;100616.97;;;-3.68;46.67
54122;BME280;40029;58.708;50.190;2023-01-28T14:30:14;100616.94;;;-3.69;47.25
54122;BME280;40029;58.708;50.190;2023-01-28T14:32:50;100616.56;;;-3.80;47.70
54122;BME280;40029;58.708;50.190;2023-01-28T14:35:33;100604.81;;;-3.77;47.60
54122;BME280;40029;58.708;50.190;2023-01-28T14:38:07;100609.22;;;-3.71;47.59
54122;BME280;40029;58.708;50.190;2023-01-28T14:40:39;100605.00;;;-3.70;47.80
54122;BME280;40029;58.708;50.190;2023-01-28T14:43:24;100603.06;;;-3.78;47.77
54122;BME280;40029;58.708;50.190;2023-01-28T14:46:15;100605.97;;;-3.67;48.30
54122;BME280;40029;58.708;50.190;2023-01-28T14:49:42;100605.38;;;-3.58;47.67
54122;BME280;40029;58.708;50.190;2023-01-28T14:55:19;100586.75;;;-3.57;47.65
54122;BME280;40029;58.708;50.190;2023-01-28T14:57:56;100569.56;;;-3.64;47.24
54122;BME280;40029;58.708;50.190;2023-01-28T15:00:31;100583.41;;;-3.56;47.90
54122;BME280;40029;58.708;50.190;2023-01-28T15:03:17;100523.03;;;-3.86;47.58
54122;BME280;40029;58.708;50.190;2023-01-28T15:05:48;100506.00;;;-3.87;47.64
54122;BME280;40029;58.708;50.190;2023-01-28T15:08:22;100563.19;;;-3.50;47.47
54122;BME280;40029;58.708;50.190;2023-01-28T15:10:53;100571.31;;;-3.62;48.11
54122;BME280;40029;58.708;50.190;2023-01-28T15:13:27;100562.91;;;-3.59;48.00
54122;BME280;40029;58.708;50.190;2023-01-28T15:15:58;100568.34;;;-3.48;48.04
54122;BME280;40029;58.708;50.190;2023-01-28T15:18:36;100548.38;;;-3.62;47.88
54122;BME280;40029;58.708;50.190;2023-01-28T15:21:10;100549.50;;;-3.81;48.27
54122;BME280;40029;58.708;50.190;2023-01-28T15:23:41;100516.53;;;-4.03;48.23
54122;BME280;40029;58.708;50.190;2023-01-28T15:26:21;100567.03;;;-3.63;48.20
54122;BME280;40029;58.708;50.190;2023-01-28T15:28:54;100557.59;;;-3.65;48.17
54122;BME280;40029;58.708;50.190;2023-01-28T15:31:31;100546.50;;;-3.69;48.11
54122;BME280;40029;58.708;50.190;2023-01-28T15:34:03;100568.88;;;-3.59;48.29
54122;BME280;40029;58.708;50.190;2023-01-28T15:36:41;100464.94;;;-4.24;48.23
54122;BME280;40029;58.708;50.190;2023-01-28T15:39:20;100494.53;;;-4.01;48.25
54122;BME280;40029;58.708;50.190;2023-01-28T15:42:01;100571.56;;;-3.54;48.30
54122;BME280;40029;58.708;50.190;2023-01-28T15:44:36;100571.44;;;-3.57;48.45
54122;BME280;40029;58.708;50.190;2023-01-28T15:47:29;100486.34;;;-4.18;48.76
54122;BME280;40029;58.708;50.190;2023-01-28T15:50:06;100521.13;;;-3.91;49.08
54122;BME280;40029;58.708;50.190;2023-01-28T15:52:40;100451.75;;;-4.38;48.58
54122;BME280;40029;58.708;50.190;2023-01-28T15:55:32;100554.19;;;-3.66;49.16
54122;BME280;40029;58.708;50.190;2023-01-28T15:58:30;100530.09;;;-3.77;48.96
54122;BME280;40029;58.708;50.190;2023-01-28T16:03:41;100499.09;;;-3.91;48.99
54122;BME280;40029;58.708;50.190;2023-01-28T16:09:01;100465.84;;;-3.95;48.73
54122;BME280;40029;58.708;50.190;2023-01-28T16:11:35;100508.75;;;-3.81;48.66
54122;BME280;40029;58.708;50.190;2023-01-28T16:14:26;100471.72;;;-3.98;49.10
54122;BME280;40029;58.708;50.190;2023-01-28T16:16:58;100449.91;;;-4.17;48.78
54122;BME280;40029;58.708;50.190;2023-01-28T16:19:34;100515.81;;;-3.72;48.83
54122;BME280;40029;58.708;50.190;2023-01-28T16:22:18;100521.31;;;-3.60;48.73
54122;BME280;40029;58.708;50.190;2023-01-28T16:24:51;100514.38;;;-3.64;49.13
54122;BME280;40029;58.708;50.190;2023-01-28T16:27:27;100531.09;;;-3.45;48.89
54122;BME280;40029;58.708;50.190;2023-01-28T16:29:59;100533.88;;;-3.37;48.62
54122;BME280;40029;58.708;50.190;2023-01-28T16:32:37;100512.34;;;-3.47;48.71
54122;BME280;40029;58.708;50.190;2023-01-28T16:35:14;100526.91;;;-3.43;48.78
54122;BME280;40029;58.708;50.190;2023-01-28T16:37:48;100534.34;;;-3.49;48.76
54122;BME280;40029;58.708;50.190;2023-01-28T16:40:22;100528.66;;;-3.40;48.68
54122;BME280;40029;58.708;50.190;2023-01-28T16:42:53;100527.19;;;-3.34;48.43
54122;BME280;40029;58.708;50.190;2023-01-28T16:45:25;100531.31;;;-3.37;48.31
54122;BME280;40029;58.708;50.190;2023-01-28T16:47:56;100524.94;;;-3.52;48.50
54122;BME280;40029;58.708;50.190;2023-01-28T16:50:28;100533.13;;;-3.35;48.22
54122;BME280;40029;58.708;50.190;2023-01-28T16:52:59;100524.53;;;-3.37;48.16
54122;BME280;40029;58.708;50.190;2023-01-28T16:55:31;100517.44;;;-3.47;48.94
54122;BME280;40029;58.708;50.190;2023-01-28T16:58:02;100502.81;;;-3.53;48.45
54122;BME280;40029;58.708;50.190;2023-01-28T17:00:33;100510.97;;;-3.36;48.81
54122;BME280;40029;58.708;50.190;2023-01-28T17:03:06;100470.84;;;-3.71;48.57
54122;BME280;40029;58.708;50.190;2023-01-28T17:05:37;100469.41;;;-3.63;48.44
54122;BME280;40029;58.708;50.190;2023-01-28T17:08:08;100432.28;;;-3.84;48.80
54122;BME280;40029;58.708;50.190;2023-01-28T17:10:39;100505.59;;;-3.45;48.75
54122;BME280;40029;58.708;50.190;2023-01-28T17:13:10;100505.75;;;-3.40;48.14
54122;BME280;40029;58.708;50.190;2023-01-28T17:15:41;100468.56;;;-3.62;48.22
54122;BME280;40029;58.708;50.190;2023-01-28T17:18:13;100508.63;;;-3.30;48.38
54122;BME280;40029;58.708;50.190;2023-01-28T17:20:44;100446.44;;;-3.65;48.04
54122;BME280;40029;58.708;50.190;2023-01-28T17:23:15;100490.78;;;-3.30;47.75
54122;BME280;40029;58.708;50.190;2023-01-28T17:25:47;100491.19;;;-3.44;47.84
54122;BME280;40029;58.708;50.190;2023-01-28T17:28:18;100470.59;;;-3.79;48.96
54122;BME280;40029;58.708;50.190;2023-01-28T17:30:49;100504.13;;;-3.65;49.60
54122;BME280;40029;58.708;50.190;2023-01-28T17:33:21;100433.47;;;-3.99;49.16
54122;BME280;40029;58.708;50.190;2023-01-28T17:35:52;100444.44;;;-4.02;49.25
54122;BME280;40029;58.708;50.190;2023-01-28T17:38:23;100505.69;;;-3.70;49.55
54122;BME280;40029;58.708;50.190;2023-01-28T17:41:00;100481.06;;;-3.70;49.38
54122;BME280;40029;58.708;50.190;2023-01-28T17:43:31;100498.03;;;-3.70;49.64
54122;BME280;40029;58.708;50.190;2023-01-28T17:46:11;100479.22;;;-3.75;49.37
54122;BME280;40029;58.708;50.190;2023-01-28T17:48:43;100494.84;;;-3.65;49.59
54122;BME280;40029;58.708;50.190;2023-01-28T17:51:16;100489.78;;;-3.63;49.71
54122;BME280;40029;58.708;50.190;2023-01-28T17:53:50;100494.13;;;-3.61;49.35
54122;BME280;40029;58.708;50.190;2023-01-28T17:56:26;100487.94;;;-3.67;49.29
54122;BME280;40029;58.708;50.190;2023-01-28T17:59:00;100485.66;;;-3.60;49.19
54122;BME280;40029;58.708;50.190;2023-01-28T18:01:36;100491.84;;;-3.52;48.75
54122;BME280;40029;58.708;50.190;2023-01-28T18:04:07;100502.34;;;-3.41;48.53
54122;BME280;40029;58.708;50.190;2023-01-28T18:06:39;100447.78;;;-3.76;49.04
54122;BME280;40029;58.708;50.190;2023-01-28T18:09:10;100445.38;;;-3.71;48.76
54122;BME280;40029;58.708;50.190;2023-01-28T18:11:46;100489.31;;;-3.50;48.73
54122;BME280;40029;58.708;50.190;2023-01-28T18:14:17;100474.00;;;-3.52;48.89
54122;BME280;40029;58.708;50.190;2023-01-28T18:16:48;100493.91;;;-3.40;48.83
54122;BME280;40029;58.708;50.190;2023-01-28T18:19:19;100486.19;;;-3.41;48.83
54122;BME280;40029;58.708;50.190;2023-01-28T18:21:50;100478.63;;;-3.40;48.75
54122;BME280;40029;58.708;50.190;2023-01-28T18:24:27;100485.59;;;-3.33;48.77
54122;BME280;40029;58.708;50.190;2023-01-28T18:26:59;100473.69;;;-3.34;48.34
54122;BME280;40029;58.708;50.190;2023-01-28T18:29:32;100470.44;;;-3.28;48.61
54122;BME280;40029;58.708;50.190;2023-01-28T18:32:03;100464.25;;;-3.36;48.51
54122;BME280;40029;58.708;50.190;2023-01-28T18:34:34;100459.00;;;-3.42;48.02
54122;BME280;40029;58.708;50.190;2023-01-28T18:37:06;100463.75;;;-3.53;48.29
54122;BME280;40029;58.708;50.190;2023-01-28T18:39:38;100479.09;;;-3.52;48.83
54122;BME280;40029;58.708;50.190;2023-01-28T18:42:09;100480.94;;;-3.47;48.80
54122;BME280;40029;58.708;50.190;2023-01-28T18:44:40;100474.41;;;-3.66;49.25
54122;BME280;40029;58.708;50.190;2023-01-28T18:47:11;100479.44;;;-3.68;49.20
54122;BME280;40029;58.708;50.190;2023-01-28T18:49:42;100475.25;;;-3.66;48.99
54122;BME280;40029;58.708;50.190;2023-01-28T18:52:13;100473.34;;;-3.73;49.06
54122;BME280;40029;58.708;50.190;2023-01-28T18:54:44;100470.56;;;-3.81;49.44
54122;BME280;40029;58.708;50.190;2023-01-28T18:57:15;100416.16;;;-4.11;49.29
54122;BME280;40029;58.708;50.190;2023-01-28T18:59:47;100479.34;;;-3.71;48.79
54122;BME280;40029;58.708;50.190;2023-01-28T19:02:18;100454.44;;;-3.81;48.96
54122;BME280;40029;58.708;50.190;2023-01-28T19:04:54;100452.03;;;-3.77;48.52
54122;BME280;40029;58.708;50.190;2023-01-28T19:07:25;100458.50;;;-3.59;48.72
54122;BME280;40029;58.708;50.190;2023-01-28T19:09:56;100467.84;;;-3.58;48.71
54122;BME280;40029;58.708;50.190;2023-01-28T19:12:28;100437.97;;;-3.64;48.46
54122;BME280;40029;58.708;50.190;2023-01-28T19:15:01;100449.19;;;-3.57;48.92
54122;BME280;40029;58.708;50.190;2023-01-28T19:17:33;100433.75;;;-3.63;48.73
54122;BME280;40029;58.708;50.190;2023-01-28T19:20:05;100429.53;;;-3.61;48.90
54122;BME280;40029;58.708;50.190;2023-01-28T19:22:36;100435.38;;;-3.65;48.85
54122;BME280;40029;58.708;50.190;2023-01-28T19:25:07;100437.75;;;-3.71;49.06
54122;BME280;40029;58.708;50.190;2023-01-28T19:27:38;100436.91;;;-3.70;49.39
54122;BME280;40029;58.708;50.190;2023-01-28T19:30:10;100432.53;;;-3.76;49.71
54122;BME280;40029;58.708;50.190;2023-01-28T19:32:41;100439.81;;;-3.87;49.45
54122;BME280;40029;58.708;50.190;2023-01-28T19:35:12;100442.22;;;-3.91;49.52
54122;BME280;40029;58.708;50.190;2023-01-28T19:37:43;100381.84;;;-4.24;49.90
54122;BME280;40029;58.708;50.190;2023-01-28T19:40:14;100433.13;;;-3.83;49.90
54122;BME280;40029;58.708;50.190;2023-01-28T19:42:45;100423.94;;;-3.78;49.73
54122;BME280;40029;58.708;50.190;2023-01-28T19:45:16;100431.69;;;-3.75;49.20
54122;BME280;40029;58.708;50.190;2023-01-28T19:47:47;100439.28;;;-3.77;49.34
54122;BME280;40029;58.708;50.190;2023-01-28T19:50:18;100427.69;;;-3.67;49.02
54122;BME280;40029;58.708;50.190;2023-01-28T19:52:49;100422.50;;;-3.70;49.20
54122;BME280;40029;58.708;50.190;2023-01-28T19:55:20;100421.84;;;-3.64;49.04
54122;BME280;40029;58.708;50.190;2023-01-28T19:57:51;100407.81;;;-3.79;49.08
54122;BME280;40029;58.708;50.190;2023-01-28T20:00:22;100418.19;;;-3.72;49.22
54122;BME280;40029;58.708;50.190;2023-01-28T20:02:53;100409.38;;;-3.84;49.74
54122;BME280;40029;58.708;50.190;2023-01-28T20:05:24;100410.47;;;-3.75;49.58
54122;BME280;40029;58.708;50.190;2023-01-28T20:07:55;100400.19;;;-3.79;49.39
54122;BME280;40029;58.708;50.190;2023-01-28T20:10:27;100353.41;;;-4.11;49.30
54122;BME280;40029;58.708;50.190;2023-01-28T20:12:58;100409.56;;;-3.78;49.50
54122;BME280;40029;58.708;50.190;2023-01-28T20:15:28;100407.75;;;-3.82;49.55
54122;BME280;40029;58.708;50.190;2023-01-28T20:17:59;100349.97;;;-4.40;49.69
54122;BME280;40029;58.708;50.190;2023-01-28T20:20:31;100404.69;;;-3.98;49.77
54122;BME280;40029;58.708;50.190;2023-01-28T20:23:02;100402.19;;;-3.97;50.16
54122;BME280;40029;58.708;50.190;2023-01-28T20:25:35;100406.78;;;-3.85;49.64
54122;BME280;40029;58.708;50.190;2023-01-28T20:28:06;100409.13;;;-3.91;49.77
54122;BME280;40029;58.708;50.190;2023-01-28T20:30:37;100409.81;;;-3.97;49.83
